Time;durP1;ratioP1;P1;durP2;ratioP2;P2;SDS_P1;SDS_P2;PMS_P1;PMS_P2;Temp;Humidity;BMP_temperature;BMP_pressure;BME280_temperature;BME280_humidity;BME280_pressure;Samples;Min_cycle;Max_cycle;Signal;HPM_P1;HPM_P2
2023/06/19 00:00:51;;;;;;;10.93;6.78;;;21.70;99.90;;;;;;4994315;28;20038;-69
2023/06/19 00:03:16;;;;;;;8.93;7.32;;;21.70;99.90;;;;;;4994713;28;20073;-69
2023/06/19 00:05:42;;;;;;;7.65;6.80;;;21.70;99.90;;;;;;4995096;28;20046;-70
2023/06/19 00:08:08;;;;;;;9.15;6.75;;;21.70;99.90;;;;;;4993316;28;20047;-69
2023/06/19 00:10:34;;;;;;;7.82;6.85;;;21.70;99.90;;;;;;4994314;28;20117;-70
2023/06/19 00:12:59;;;;;;;8.65;6.97;;;21.70;99.90;;;;;;4993575;28;20089;-70
2023/06/19 00:15:25;;;;;;;7.82;6.43;;;21.70;99.90;;;;;;4993361;28;20038;-70
2023/06/19 00:17:50;;;;;;;11.07;7.00;;;21.70;99.90;;;;;;4993117;28;20494;-70
2023/06/19 00:20:17;;;;;;;8.40;6.47;;;21.70;99.90;;;;;;4976928;28;20093;-69
2023/06/19 00:22:43;;;;;;;8.20;6.88;;;21.70;99.90;;;;;;4994377;28;20082;-70
2023/06/19 00:25:09;;;;;;;10.02;7.25;;;21.70;99.90;;;;;;4993168;28;20080;-70
2023/06/19 00:27:35;;;;;;;7.18;6.30;;;21.70;99.90;;;;;;4994276;28;20045;-70
2023/06/19 00:30:01;;;;;;;8.13;6.68;;;21.70;99.90;;;;;;4994081;28;20374;-70
2023/06/19 00:32:28;;;;;;;9.02;6.40;;;21.70;99.90;;;;;;4994437;28;20054;-70
2023/06/19 00:34:54;;;;;;;7.20;6.50;;;21.70;99.90;;;;;;4993949;28;20061;-69
2023/06/19 00:37:19;;;;;;;10.13;6.70;;;21.70;99.90;;;;;;4994208;28;20058;-70
2023/06/19 00:39:45;;;;;;;8.55;6.43;;;21.70;99.90;;;;;;4994041;28;20042;-70
2023/06/19 00:42:11;;;;;;;11.82;7.35;;;21.70;99.90;;;;;;4994255;28;20042;-69
2023/06/19 00:44:36;;;;;;;8.57;6.45;;;21.60;99.90;;;;;;4993819;28;20045;-70
2023/06/19 00:47:03;;;;;;;8.02;5.90;;;21.60;99.90;;;;;;4992469;28;20050;-70
2023/06/19 00:49:30;;;;;;;8.23;6.60;;;21.70;99.90;;;;;;4993930;28;20038;-69
2023/06/19 00:51:56;;;;;;;8.20;6.72;;;21.60;99.90;;;;;;4994031;28;20037;-70
2023/06/19 00:54:22;;;;;;;8.70;6.75;;;21.60;99.90;;;;;;4993974;28;20556;-70
2023/06/19 00:56:48;;;;;;;8.52;7.50;;;21.60;99.90;;;;;;4992522;28;20517;-70
2023/06/19 00:59:20;;;;;;;10.05;6.80;;;21.60;99.90;;;;;;4993430;28;20665;-70
2023/06/19 01:01:46;;;;;;;9.25;6.95;;;21.70;99.30;;;;;;4992782;28;20042;-69
2023/06/19 01:04:12;;;;;;;7.25;6.55;;;21.70;99.00;;;;;;4993846;28;20042;-69
2023/06/19 01:07:09;;;;;;;8.18;6.57;;;21.70;98.90;;;;;;4992343;28;20050;-69
2023/06/19 01:09:59;;;;;;;7.97;6.60;;;21.70;98.20;;;;;;4992248;28;20072;-70
2023/06/19 01:12:33;;;;;;;8.15;6.45;;;21.70;98.10;;;;;;4993970;28;20039;-70
2023/06/19 01:15:02;;;;;;;10.07;6.55;;;21.70;97.70;;;;;;4992612;28;20104;-70
2023/06/19 01:17:29;;;;;;;9.10;6.70;;;21.80;97.50;;;;;;4992104;28;20057;-70
2023/06/19 01:19:56;;;;;;;8.77;6.50;;;21.70;97.30;;;;;;4993305;28;20121;-70
2023/06/19 01:22:27;;;;;;;7.00;6.28;;;21.70;97.00;;;;;;4993093;28;20047;-70
2023/06/19 01:24:53;;;;;;;8.07;6.30;;;21.80;96.70;;;;;;4993290;28;20042;-70
2023/06/19 01:27:19;;;;;;;9.15;6.82;;;21.80;96.60;;;;;;4991716;28;20053;-70
2023/06/19 01:29:44;;;;;;;7.07;6.32;;;21.80;96.40;;;;;;4991713;28;20050;-70
2023/06/19 01:32:15;;;;;;;6.93;6.13;;;21.80;96.30;;;;;;4993355;28;20121;-70
2023/06/19 01:34:42;;;;;;;8.77;6.88;;;21.80;96.10;;;;;;4991961;28;20104;-70
2023/06/19 01:37:10;;;;;;;8.02;6.28;;;21.80;96.20;;;;;;4991743;28;20469;-70
2023/06/19 01:39:37;;;;;;;6.93;6.22;;;21.70;96.20;;;;;;4992872;28;20050;-70
2023/06/19 01:42:04;;;;;;;8.43;6.90;;;21.80;96.20;;;;;;4992154;28;20034;-70
2023/06/19 01:44:30;;;;;;;9.02;6.35;;;21.70;96.00;;;;;;4992903;28;20520;-70
2023/06/19 01:46:55;;;;;;;9.15;6.97;;;21.70;95.90;;;;;;4992740;28;20050;-70
2023/06/19 01:49:21;;;;;;;8.43;6.90;;;21.70;95.90;;;;;;4991570;28;20088;-70
2023/06/19 01:51:46;;;;;;;8.15;6.85;;;21.70;95.70;;;;;;4993208;28;20044;-70
2023/06/19 01:54:12;;;;;;;8.32;6.53;;;21.70;95.50;;;;;;4975551;28;20125;-70
2023/06/19 01:56:38;;;;;;;7.68;6.10;;;21.70;95.30;;;;;;4992529;28;20495;-70
2023/06/19 01:59:03;;;;;;;7.65;6.75;;;21.60;95.30;;;;;;4992370;28;20074;-70
2023/06/19 02:01:29;;;;;;;9.57;7.18;;;21.70;95.10;;;;;;4992483;28;20056;-70
2023/06/19 02:03:54;;;;;;;7.53;6.65;;;21.70;94.90;;;;;;4992635;28;20046;-70
2023/06/19 02:06:21;;;;;;;9.85;7.30;;;21.70;94.70;;;;;;4992665;28;20034;-69
2023/06/19 02:08:48;;;;;;;8.10;6.63;;;21.70;94.30;;;;;;4991666;28;20050;-70
2023/06/19 02:11:13;;;;;;;8.55;6.05;;;21.70;94.00;;;;;;4992355;28;20038;-70
2023/06/19 02:13:39;;;;;;;9.20;6.63;;;21.70;93.80;;;;;;4992622;28;20034;-70
2023/06/19 02:16:04;;;;;;;7.72;6.72;;;21.70;93.50;;;;;;4992575;28;20049;-70
2023/06/19 02:18:30;;;;;;;8.10;6.88;;;21.70;93.30;;;;;;4990968;28;20053;-70
2023/06/19 02:20:55;;;;;;;9.50;6.53;;;21.70;92.90;;;;;;4992398;28;20418;-70
2023/06/19 02:23:21;;;;;;;9.38;7.43;;;21.70;92.60;;;;;;4991203;28;20031;-70
2023/06/19 02:25:47;;;;;;;9.70;6.68;;;21.70;92.50;;;;;;4992460;28;20638;-70
2023/06/19 02:28:12;;;;;;;9.27;6.53;;;21.70;92.30;;;;;;4992103;28;20038;-70
2023/06/19 02:30:38;;;;;;;8.70;5.90;;;21.70;92.00;;;;;;4992007;28;20142;-70
2023/06/19 02:33:04;;;;;;;7.28;6.20;;;21.70;92.00;;;;;;4992288;28;20030;-70
2023/06/19 02:35:31;;;;;;;8.82;6.13;;;21.70;91.90;;;;;;4992214;28;20057;-70
2023/06/19 02:37:57;;;;;;;7.53;6.70;;;21.70;91.60;;;;;;4991953;28;20141;-70
2023/06/19 02:40:23;;;;;;;10.25;6.53;;;21.70;91.60;;;;;;4991803;28;20569;-70
2023/06/19 02:42:48;;;;;;;9.75;6.43;;;21.70;91.50;;;;;;4992284;28;20050;-70
2023/06/19 02:45:15;;;;;;;7.80;6.00;;;21.70;91.30;;;;;;4992084;28;20480;-70
2023/06/19 02:47:41;;;;;;;7.72;6.63;;;21.60;91.30;;;;;;4991608;28;20113;-70
2023/06/19 02:50:07;;;;;;;7.25;6.45;;;21.70;91.30;;;;;;4990771;28;20491;-70
2023/06/19 02:52:32;;;;;;;7.70;6.88;;;21.60;91.50;;;;;;4992287;28;20038;-70
2023/06/19 02:54:58;;;;;;;11.02;7.25;;;21.60;91.60;;;;;;4992118;28;20034;-70
2023/06/19 02:57:24;;;;;;;11.20;6.93;;;21.60;91.70;;;;;;4991764;28;20384;-70
2023/06/19 02:59:50;;;;;;;8.57;6.40;;;21.50;91.80;;;;;;4991688;28;20041;-70
2023/06/19 03:02:15;;;;;;;12.25;6.72;;;21.50;92.00;;;;;;4991479;28;20054;-70
2023/06/19 03:04:41;;;;;;;9.73;6.93;;;21.50;92.10;;;;;;4991959;28;20042;-70
2023/06/19 03:07:06;;;;;;;10.65;6.50;;;21.40;92.20;;;;;;4991752;28;20039;-70
2023/06/19 03:09:32;;;;;;;7.75;6.82;;;21.40;92.20;;;;;;4991557;28;20034;-70
2023/06/19 03:11:57;;;;;;;8.45;6.70;;;21.40;92.00;;;;;;4991937;28;20070;-70
2023/06/19 03:14:23;;;;;;;8.10;6.20;;;21.40;92.50;;;;;;4991836;28;20413;-70
2023/06/19 03:16:48;;;;;;;8.15;6.95;;;21.30;93.10;;;;;;4991473;28;20410;-70
2023/06/19 03:19:14;;;;;;;9.70;6.95;;;21.30;93.50;;;;;;4991744;28;20121;-70
2023/06/19 03:21:40;;;;;;;9.70;7.45;;;21.20;93.80;;;;;;4995376;28;20046;-70
2023/06/19 03:24:05;;;;;;;11.48;7.35;;;21.20;94.10;;;;;;4994496;28;20449;-70
2023/06/19 03:26:31;;;;;;;8.88;7.35;;;21.10;94.40;;;;;;4995319;28;20041;-70
2023/06/19 03:28:57;;;;;;;9.60;7.13;;;21.10;94.70;;;;;;4995675;28;20038;-70
2023/06/19 03:31:22;;;;;;;8.55;6.90;;;21.10;94.90;;;;;;4995090;28;20045;-70
2023/06/19 03:33:48;;;;;;;9.88;7.40;;;21.20;95.20;;;;;;4995623;28;20039;-70
2023/06/19 03:36:14;;;;;;;9.70;7.40;;;21.10;95.20;;;;;;4995517;28;20405;-70
2023/06/19 03:38:39;;;;;;;9.85;6.85;;;21.10;95.30;;;;;;4995279;28;20042;-70
2023/06/19 03:41:05;;;;;;;9.82;7.63;;;21.10;95.50;;;;;;4994956;28;20125;-70
2023/06/19 03:43:31;;;;;;;8.77;7.07;;;21.00;95.80;;;;;;4995357;28;20042;-70
2023/06/19 03:45:56;;;;;;;10.00;7.05;;;21.00;96.10;;;;;;4994925;28;20042;-70
2023/06/19 03:48:22;;;;;;;8.35;6.60;;;21.00;96.30;;;;;;4995101;28;20034;-70
2023/06/19 03:50:47;;;;;;;8.35;6.70;;;21.00;96.50;;;;;;4995039;28;20122;-70
2023/06/19 03:53:13;;;;;;;8.43;7.00;;;21.00;97.10;;;;;;4995245;28;20105;-70
2023/06/19 03:55:38;;;;;;;10.38;7.45;;;21.00;97.00;;;;;;4995096;28;20117;-70
2023/06/19 03:58:04;;;;;;;9.98;6.80;;;21.00;97.20;;;;;;4994891;28;20057;-70
2023/06/19 04:00:30;;;;;;;9.68;6.68;;;21.00;97.40;;;;;;4993560;28;20050;-70
2023/06/19 04:02:56;;;;;;;7.97;7.18;;;21.00;97.50;;;;;;4994956;28;20042;-70
2023/06/19 04:05:21;;;;;;;8.27;6.90;;;21.00;97.60;;;;;;4995085;28;20088;-70
2023/06/19 04:07:47;;;;;;;9.38;7.25;;;21.10;97.70;;;;;;4994544;28;20125;-70
2023/06/19 04:10:13;;;;;;;7.68;6.53;;;21.00;97.90;;;;;;4994544;28;20034;-70
2023/06/19 04:12:40;;;;;;;11.10;7.32;;;21.00;98.30;;;;;;4994936;28;20053;-70
2023/06/19 04:15:06;;;;;;;8.05;6.28;;;21.00;98.60;;;;;;4994579;28;20038;-70
2023/06/19 04:17:32;;;;;;;6.88;5.75;;;21.00;99.10;;;;;;4994712;28;20097;-70
2023/06/19 04:19:58;;;;;;;7.68;5.93;;;21.10;99.30;;;;;;4994252;28;20054;-70
2023/06/19 04:22:23;;;;;;;8.02;5.50;;;21.10;99.40;;;;;;4994774;28;20549;-70
2023/06/19 04:24:49;;;;;;;11.57;5.45;;;21.10;99.60;;;;;;4994333;28;20049;-70
2023/06/19 04:27:14;;;;;;;7.55;5.75;;;21.20;99.80;;;;;;4994145;28;20089;-70
2023/06/19 04:29:40;;;;;;;6.57;5.20;;;21.20;99.90;;;;;;4993991;28;20042;-70
2023/06/19 04:32:11;;;;;;;5.70;5.00;;;21.20;99.90;;;;;;4993397;28;20045;-70
2023/06/19 04:34:41;;;;;;;7.03;4.32;;;21.30;99.90;;;;;;4994340;28;20034;-70
2023/06/19 04:37:07;;;;;;;8.43;5.03;;;21.30;99.90;;;;;;4994292;28;20042;-70
2023/06/19 04:39:33;;;;;;;5.20;4.15;;;21.40;99.90;;;;;;4993986;28;20470;-70
2023/06/19 04:42:00;;;;;;;5.35;3.92;;;21.40;99.90;;;;;;4993035;28;20038;-70
2023/06/19 04:44:25;;;;;;;4.97;4.05;;;21.50;99.90;;;;;;4994011;28;20652;-70
2023/06/19 04:46:51;;;;;;;5.68;3.97;;;21.50;99.90;;;;;;4993702;28;20038;-70
2023/06/19 04:49:16;;;;;;;5.65;3.97;;;21.60;99.90;;;;;;4993733;28;20038;-70
2023/06/19 04:51:42;;;;;;;5.25;3.75;;;21.70;99.90;;;;;;4994102;28;20164;-70
2023/06/19 04:54:08;;;;;;;7.07;4.05;;;21.70;99.90;;;;;;4993972;28;20041;-70
2023/06/19 04:56:33;;;;;;;5.28;3.67;;;21.90;99.90;;;;;;4992609;28;20030;-70
2023/06/19 04:59:00;;;;;;;5.25;3.47;;;22.00;99.90;;;;;;4993783;28;20042;-70
2023/06/19 05:01:30;;;;;;;6.05;3.80;;;22.10;99.90;;;;;;4993707;28;20422;-70
2023/06/19 05:03:56;;;;;;;4.78;4.05;;;22.20;99.90;;;;;;4991865;28;20113;-70
2023/06/19 05:06:25;;;;;;;5.70;4.10;;;22.20;99.90;;;;;;4992839;28;20117;-70
2023/06/19 05:08:52;;;;;;;5.05;3.45;;;22.30;99.90;;;;;;4992608;28;20135;-70
2023/06/19 05:11:17;;;;;;;4.82;3.50;;;22.40;99.90;;;;;;4992543;28;20042;-70
2023/06/19 05:13:43;;;;;;;6.28;3.97;;;22.40;99.90;;;;;;4991033;28;20038;-70
2023/06/19 05:16:09;;;;;;;4.63;3.92;;;22.50;99.90;;;;;;4992579;28;20038;-70
2023/06/19 05:18:34;;;;;;;5.68;3.72;;;22.50;99.90;;;;;;4991623;28;20041;-70
2023/06/19 05:21:00;;;;;;;5.15;4.00;;;22.40;99.90;;;;;;4992013;28;20097;-70
2023/06/19 05:23:25;;;;;;;4.53;3.75;;;22.40;99.90;;;;;;4992366;28;20069;-69
2023/06/19 05:25:51;;;;;;;5.35;3.58;;;22.50;99.90;;;;;;4993401;28;20038;-69
2023/06/19 05:28:17;;;;;;;4.13;3.72;;;22.50;99.90;;;;;;4975691;28;20081;-69
2023/06/19 05:30:42;;;;;;;5.30;3.55;;;22.60;99.90;;;;;;4991731;28;20038;-69
2023/06/19 05:33:09;;;;;;;4.30;3.50;;;22.60;99.90;;;;;;4991920;28;20042;-69
2023/06/19 05:35:35;;;;;;;6.00;3.92;;;22.70;99.90;;;;;;5006961;23;20050;-70
2023/06/19 05:38:00;;;;;;;6.57;3.47;;;22.90;99.90;;;;;;4990385;28;20054;-70
2023/06/19 05:40:26;;;;;;;4.68;3.42;;;22.90;99.90;;;;;;4992843;28;20038;-70
2023/06/19 05:42:51;;;;;;;4.82;3.42;;;23.00;99.90;;;;;;4991750;28;20108;-70
2023/06/19 05:45:17;;;;;;;4.13;3.45;;;23.10;99.90;;;;;;4991749;28;20046;-70
2023/06/19 05:47:43;;;;;;;5.60;3.92;;;23.10;99.90;;;;;;4992491;28;20041;-70
2023/06/19 05:50:09;;;;;;;4.10;3.53;;;23.00;99.90;;;;;;4990750;28;20168;-69
2023/06/19 05:52:34;;;;;;;4.85;3.88;;;23.10;99.90;;;;;;4992828;28;20031;-69
2023/06/19 05:55:00;;;;;;;5.03;3.50;;;23.20;99.90;;;;;;4992987;28;20177;-70
2023/06/19 05:57:26;;;;;;;5.05;4.25;;;23.10;99.90;;;;;;4991441;28;20172;-70
2023/06/19 05:59:52;;;;;;;6.25;4.88;;;23.00;99.90;;;;;;4992665;28;20496;-70
2023/06/19 06:02:19;;;;;;;5.85;4.72;;;23.10;99.90;;;;;;4991842;28;20100;-70
2023/06/19 06:04:45;;;;;;;5.55;4.10;;;23.10;99.90;;;;;;4991318;28;20081;-69
2023/06/19 06:07:11;;;;;;;5.25;4.13;;;23.30;99.90;;;;;;4991027;28;20066;-70
2023/06/19 06:09:37;;;;;;;5.28;4.20;;;23.10;99.90;;;;;;4992528;28;20061;-70
2023/06/19 06:12:03;;;;;;;9.10;4.55;;;23.00;99.90;;;;;;4991661;28;20117;-70
2023/06/19 06:14:28;;;;;;;7.13;5.30;;;22.80;99.90;;;;;;4992668;28;20057;-70
2023/06/19 06:16:54;;;;;;;6.03;5.07;;;22.70;99.90;;;;;;4992401;28;20042;-70
2023/06/19 06:19:22;;;;;;;6.80;5.78;;;22.60;99.90;;;;;;4992242;28;20051;-70
2023/06/19 06:21:48;;;;;;;10.35;6.38;;;22.50;99.90;;;;;;4992518;28;20417;-70
2023/06/19 06:24:14;;;;;;;9.18;6.53;;;22.40;99.90;;;;;;4991173;28;20046;-70
2023/06/19 06:26:39;;;;;;;6.50;5.70;;;22.40;99.90;;;;;;4992190;28;20113;-70
2023/06/19 06:29:05;;;;;;;9.68;6.15;;;22.30;99.90;;;;;;4991150;28;20031;-70
2023/06/19 06:31:30;;;;;;;8.80;6.05;;;22.20;99.90;;;;;;4991165;28;20046;-71
2023/06/19 06:33:56;;;;;;;6.05;5.35;;;22.20;99.90;;;;;;4990907;28;20042;-70
2023/06/19 06:36:21;;;;;;;6.80;5.40;;;22.20;99.90;;;;;;4992215;28;20042;-70
2023/06/19 06:38:47;;;;;;;6.38;4.75;;;22.10;99.90;;;;;;4990767;28;20038;-70
2023/06/19 06:41:13;;;;;;;6.93;4.75;;;22.10;99.90;;;;;;4992060;28;20046;-70
2023/06/19 06:43:42;;;;;;;5.90;4.38;;;22.30;99.90;;;;;;4990925;28;20050;-70
2023/06/19 06:46:08;;;;;;;5.25;4.65;;;22.60;99.90;;;;;;4992200;28;20525;-70
2023/06/19 06:48:34;;;;;;;4.93;3.97;;;22.70;99.90;;;;;;4991843;28;20058;-71
2023/06/19 06:51:01;;;;;;;4.63;4.00;;;22.70;99.90;;;;;;4990656;28;20042;-71
2023/06/19 06:53:33;;;;;;;7.82;4.07;;;22.60;99.90;;;;;;4991062;28;20046;-69
2023/06/19 06:56:02;;;;;;;5.40;3.67;;;22.50;99.90;;;;;;4995855;28;20170;-69
2023/06/19 06:58:28;;;;;;;4.97;3.75;;;22.30;99.90;;;;;;4998327;28;20096;-69
2023/06/19 07:00:55;;;;;;;6.05;3.80;;;22.30;99.90;;;;;;4996986;28;20121;-69
2023/06/19 07:03:20;;;;;;;4.90;4.13;;;22.10;99.90;;;;;;4998415;28;20506;-69
2023/06/19 07:05:47;;;;;;;4.40;3.70;;;22.00;99.90;;;;;;4998620;28;20034;-69
2023/06/19 07:08:13;;;;;;;4.28;3.60;;;21.90;99.90;;;;;;4998366;28;20046;-69
2023/06/19 07:10:39;;;;;;;4.78;4.15;;;21.80;99.90;;;;;;4998108;28;20045;-69
2023/06/19 07:13:05;;;;;;;5.85;4.60;;;21.60;99.90;;;;;;4997166;28;20046;-70
2023/06/19 07:15:30;;;;;;;5.82;5.22;;;21.60;99.90;;;;;;4980967;28;20078;-70
2023/06/19 07:17:56;;;;;;;6.15;5.45;;;21.60;99.90;;;;;;4996815;28;20046;-71
2023/06/19 07:20:22;;;;;;;7.43;5.65;;;21.40;99.90;;;;;;4998041;28;20049;-71
2023/06/19 07:22:51;;;;;;;8.50;6.50;;;21.40;99.90;;;;;;4998646;28;20699;-70
2023/06/19 07:25:16;;;;;;;8.30;7.18;;;21.20;99.90;;;;;;4981149;28;20073;-70
2023/06/19 07:27:42;;;;;;;9.55;8.25;;;21.20;99.90;;;;;;4998047;28;20513;-70
2023/06/19 07:30:08;;;;;;;13.43;9.38;;;21.10;99.90;;;;;;4998006;28;20434;-70
2023/06/19 07:32:34;;;;;;;14.43;10.48;;;21.10;99.90;;;;;;4998358;28;20042;-70
2023/06/19 07:35:00;;;;;;;14.68;10.57;;;21.00;99.90;;;;;;4998036;28;20053;-70
2023/06/19 07:37:26;;;;;;;14.95;10.85;;;21.00;99.90;;;;;;4996995;28;20052;-70
2023/06/19 07:39:52;;;;;;;15.68;12.18;;;20.90;99.90;;;;;;4980360;28;20043;-70
2023/06/19 07:42:19;;;;;;;16.75;12.35;;;20.90;99.90;;;;;;4998388;28;20184;-70
2023/06/19 07:44:45;;;;;;;13.07;10.63;;;20.90;99.90;;;;;;4998185;28;20043;-70
2023/06/19 07:47:11;;;;;;;15.45;11.23;;;21.00;99.90;;;;;;4996668;28;20413;-70
2023/06/19 07:49:37;;;;;;;13.32;10.70;;;20.90;99.90;;;;;;4997963;28;20137;-71
2023/06/19 07:52:04;;;;;;;12.57;10.32;;;20.80;99.90;;;;;;4996957;28;20495;-71
2023/06/19 07:54:30;;;;;;;15.32;10.55;;;20.90;99.90;;;;;;4996768;28;20042;-71
2023/06/19 07:56:55;;;;;;;15.60;10.88;;;20.90;99.90;;;;;;4997854;28;20049;-70
2023/06/19 07:59:22;;;;;;;14.50;10.25;;;20.90;99.90;;;;;;4997747;28;20136;-70
2023/06/19 08:01:48;;;;;;;13.70;10.13;;;20.90;99.90;;;;;;4998058;28;20078;-71
2023/06/19 08:04:13;;;;;;;14.68;10.40;;;20.90;99.90;;;;;;4996643;28;20074;-70
2023/06/19 08:06:39;;;;;;;15.57;10.98;;;20.90;99.90;;;;;;4996502;28;20043;-71
2023/06/19 08:09:04;;;;;;;12.25;9.57;;;20.90;99.90;;;;;;4994787;28;20042;-70
2023/06/19 08:11:30;;;;;;;11.57;9.07;;;20.90;99.90;;;;;;4994719;28;20038;-70
2023/06/19 08:13:56;;;;;;;10.55;8.80;;;20.80;99.90;;;;;;4994782;28;20525;-71
2023/06/19 08:16:21;;;;;;;11.60;9.25;;;20.70;99.90;;;;;;4993724;28;20053;-72
2023/06/19 08:18:47;;;;;;;13.32;8.93;;;20.70;99.90;;;;;;4994389;28;20057;-70
2023/06/19 08:21:13;;;;;;;9.05;7.07;;;20.70;99.90;;;;;;4976947;28;20081;-69
2023/06/19 08:23:40;;;;;;;8.68;7.00;;;20.70;99.90;;;;;;4994701;28;20042;-69
2023/06/19 08:26:07;;;;;;;10.95;7.45;;;20.70;99.90;;;;;;4994707;28;20042;-69
2023/06/19 08:28:33;;;;;;;8.43;6.22;;;20.70;99.90;;;;;;4994251;28;20422;-69
2023/06/19 08:30:59;;;;;;;10.50;6.82;;;20.60;99.90;;;;;;4994060;28;20035;-69
2023/06/19 08:33:24;;;;;;;7.88;5.75;;;20.50;99.90;;;;;;4993245;28;20096;-70
2023/06/19 08:35:50;;;;;;;7.80;5.68;;;20.60;99.90;;;;;;4994411;28;20524;-69
2023/06/19 08:38:15;;;;;;;9.18;5.82;;;20.70;99.90;;;;;;4994244;28;20050;-70
2023/06/19 08:40:44;;;;;;;8.32;5.90;;;20.60;99.90;;;;;;4994110;28;20410;-70
2023/06/19 08:43:10;;;;;;;7.07;5.50;;;20.50;99.90;;;;;;4994362;28;20038;-70
2023/06/19 08:45:36;;;;;;;9.77;5.45;;;20.50;99.90;;;;;;4992633;28;20414;-70
2023/06/19 08:48:03;;;;;;;6.97;4.93;;;20.40;99.90;;;;;;4994100;28;20054;-70
2023/06/19 08:50:30;;;;;;;8.35;5.20;;;20.50;99.90;;;;;;4993895;28;20042;-69
2023/06/19 08:52:56;;;;;;;5.45;4.28;;;20.50;99.90;;;;;;4993240;28;20070;-70
2023/06/19 08:55:21;;;;;;;8.63;5.03;;;20.60;99.90;;;;;;4994198;28;20105;-71
2023/06/19 08:57:49;;;;;;;8.23;4.70;;;20.50;99.90;;;;;;4992646;28;20133;-71
2023/06/19 09:00:26;;;;;;;5.90;4.18;;;20.60;99.90;;;;;;4993490;28;20065;-71
2023/06/19 09:02:57;;;;;;;5.57;4.25;;;20.50;99.90;;;;;;4992750;28;20450;-71
2023/06/19 09:05:25;;;;;;;6.90;4.70;;;20.60;99.90;;;;;;4993960;28;20495;-71
2023/06/19 09:07:56;;;;;;;10.20;5.05;;;20.50;99.90;;;;;;4993570;28;20443;-70
2023/06/19 09:10:23;;;;;;;5.63;4.13;;;20.60;99.90;;;;;;4992413;28;20061;-71
2023/06/19 09:13:04;;;;;;;6.88;5.18;;;20.60;99.90;;;;;;4992559;28;20078;-70
2023/06/19 09:15:37;;;;;;;7.22;4.43;;;20.50;99.90;;;;;;4976274;28;20061;-70
2023/06/19 09:18:05;;;;;;;6.47;4.80;;;20.60;99.90;;;;;;4992995;28;20043;-69
2023/06/19 09:20:33;;;;;;;6.22;4.10;;;20.60;99.90;;;;;;4992055;28;20045;-71
2023/06/19 09:22:59;;;;;;;6.97;4.95;;;20.60;99.90;;;;;;4992205;28;20038;-71
2023/06/19 09:25:26;;;;;;;8.30;4.53;;;20.60;99.90;;;;;;4992293;28;20045;-71
2023/06/19 09:27:54;;;;;;;6.78;4.38;;;20.60;99.90;;;;;;4992056;28;20042;-71
2023/06/19 09:30:20;;;;;;;6.80;4.43;;;20.80;99.90;;;;;;4993129;28;20061;-70
2023/06/19 09:32:45;;;;;;;7.00;4.50;;;20.80;99.90;;;;;;4992140;28;20031;-71
2023/06/19 09:35:11;;;;;;;5.45;4.18;;;20.80;99.90;;;;;;4993158;28;20045;-70
2023/06/19 09:37:38;;;;;;;9.88;4.38;;;20.90;99.90;;;;;;4975770;28;20042;-71
2023/06/19 09:40:10;;;;;;;5.88;4.18;;;21.10;99.90;;;;;;4991565;28;20041;-71
2023/06/19 09:42:38;;;;;;;6.60;4.15;;;21.20;99.90;;;;;;4992091;28;20046;-71
2023/06/19 09:45:07;;;;;;;6.05;4.47;;;21.50;99.90;;;;;;4991989;28;20437;-70
2023/06/19 09:47:43;;;;;;;6.40;4.65;;;21.50;99.90;;;;;;4992687;28;20038;-71
2023/06/19 09:50:12;;;;;;;7.13;5.03;;;21.40;99.90;;;;;;4991298;28;20061;-71
2023/06/19 09:52:39;;;;;;;5.60;4.80;;;21.50;99.90;;;;;;4992026;28;20442;-71
2023/06/19 09:55:08;;;;;;;6.72;4.50;;;21.50;99.90;;;;;;4991896;28;20042;-71
2023/06/19 09:57:34;;;;;;;6.20;4.60;;;21.60;99.90;;;;;;4991367;28;20050;-71
2023/06/19 10:00:13;;;;;;;7.50;4.85;;;21.70;99.90;;;;;;4992654;28;20402;-70
2023/06/19 10:02:44;;;;;;;5.75;4.78;;;21.70;99.90;;;;;;4991865;28;20104;-71
2023/06/19 10:05:12;;;;;;;7.13;4.55;;;21.70;99.90;;;;;;4993004;28;20093;-71
2023/06/19 10:07:41;;;;;;;7.70;4.47;;;21.80;99.90;;;;;;4992512;28;20047;-70
2023/06/19 10:10:23;;;;;;;5.80;3.92;;;22.00;99.90;;;;;;4992212;28;20046;-71
2023/06/19 10:12:48;;;;;;;5.65;4.70;;;22.00;99.90;;;;;;4992757;28;20077;-71
2023/06/19 10:15:19;;;;;;;6.85;4.80;;;22.00;99.90;;;;;;4992502;28;20073;-71
2023/06/19 10:17:50;;;;;;;10.05;5.35;;;21.90;99.90;;;;;;4990970;28;20045;-71
2023/06/19 10:20:31;;;;;;;6.82;4.40;;;22.10;99.90;;;;;;4990827;28;20042;-71
2023/06/19 10:23:10;;;;;;;6.30;4.50;;;22.20;99.90;;;;;;4991194;28;20056;-71
2023/06/19 10:25:42;;;;;;;7.15;5.00;;;22.30;99.90;;;;;;4991012;28;20046;-70
2023/06/19 10:28:21;;;;;;;8.10;5.55;;;22.50;99.90;;;;;;4992279;28;20050;-70
2023/06/19 10:30:55;;;;;;;6.55;4.68;;;22.60;99.90;;;;;;4990071;28;20093;-71
2023/06/19 10:33:26;;;;;;;5.88;5.28;;;22.50;99.90;;;;;;4992254;28;20490;-70
2023/06/19 10:35:52;;;;;;;7.07;5.13;;;22.40;99.90;;;;;;4992070;28;20038;-70
2023/06/19 10:38:18;;;;;;;6.63;5.72;;;22.30;99.90;;;;;;4974821;28;20042;-70
2023/06/19 10:40:45;;;;;;;8.23;6.28;;;22.30;99.90;;;;;;4992025;28;20510;-70
2023/06/19 10:43:11;;;;;;;7.07;5.80;;;22.20;99.90;;;;;;4990908;28;20050;-70
2023/06/19 10:45:37;;;;;;;9.13;6.13;;;22.10;99.90;;;;;;4992291;28;20046;-71
2023/06/19 10:48:04;;;;;;;9.18;6.88;;;22.00;99.90;;;;;;4991519;28;20043;-70
2023/06/19 10:50:35;;;;;;;8.32;5.53;;;22.00;99.90;;;;;;4990504;28;20572;-71
2023/06/19 10:53:00;;;;;;;10.60;7.38;;;22.20;99.90;;;;;;4992248;28;20373;-71
2023/06/19 10:55:26;;;;;;;9.00;7.45;;;22.10;99.90;;;;;;4993187;28;20510;-71
2023/06/19 10:57:52;;;;;;;10.48;7.78;;;22.10;99.90;;;;;;4990779;28;20081;-70
2023/06/19 11:00:32;;;;;;;11.45;6.93;;;22.10;99.90;;;;;;4990601;28;20553;-70
2023/06/19 11:02:58;;;;;;;10.15;7.50;;;22.00;99.90;;;;;;4991922;28;20049;-71
2023/06/19 11:05:26;;;;;;;9.10;7.78;;;22.00;99.90;;;;;;4992006;28;20062;-71
2023/06/19 11:07:58;;;;;;;13.90;8.30;;;22.00;99.90;;;;;;4987631;28;20084;-71
2023/06/19 11:10:30;;;;;;;9.20;6.65;;;21.90;99.90;;;;;;4990187;28;20030;-70
2023/06/19 11:12:57;;;;;;;12.70;8.98;;;22.10;99.90;;;;;;4998087;28;20057;-70
2023/06/19 11:15:33;;;;;;;10.18;8.23;;;22.10;99.90;;;;;;4990664;28;20049;-70
2023/06/19 11:18:01;;;;;;;8.35;6.65;;;22.20;99.90;;;;;;4990514;28;20050;-70
2023/06/19 11:20:26;;;;;;;8.65;7.15;;;22.30;99.90;;;;;;4987989;28;20055;-68
2023/06/19 11:22:57;;;;;;;8.98;7.18;;;22.20;99.90;;;;;;4990520;28;20367;-69
2023/06/19 11:25:23;;;;;;;9.77;7.63;;;22.20;99.90;;;;;;4991624;28;20038;-70
2023/06/19 11:27:52;;;;;;;9.45;8.18;;;22.20;99.90;;;;;;4991396;28;20065;-68
2023/06/19 11:30:20;;;;;;;13.82;8.70;;;22.30;99.90;;;;;;4989984;28;20035;-68
2023/06/19 11:32:48;;;;;;;13.80;8.38;;;22.40;99.90;;;;;;4991563;28;20554;-68
2023/06/19 11:35:16;;;;;;;11.50;8.05;;;22.50;99.90;;;;;;4993650;28;20030;-68
2023/06/19 11:37:46;;;;;;;11.27;7.70;;;22.60;99.90;;;;;;5024848;22;20523;-68
2023/06/19 11:40:14;;;;;;;10.65;7.97;;;22.70;99.90;;;;;;4991925;28;20100;-68
2023/06/19 11:42:51;;;;;;;11.55;7.38;;;22.50;99.90;;;;;;5000668;28;20484;-68
2023/06/19 11:45:17;;;;;;;10.63;8.13;;;22.60;99.90;;;;;;5000723;28;20034;-68
2023/06/19 11:47:45;;;;;;;11.02;7.50;;;22.70;99.90;;;;;;4995050;28;20097;-68
2023/06/19 11:50:11;;;;;;;12.18;8.13;;;22.80;99.90;;;;;;4992935;28;20031;-69
2023/06/19 11:52:37;;;;;;;8.45;7.43;;;22.60;99.90;;;;;;4993411;28;20050;-69
2023/06/19 11:55:02;;;;;;;10.32;9.07;;;22.70;99.90;;;;;;4995170;28;20031;-68
2023/06/19 11:57:28;;;;;;;12.73;7.95;;;22.70;99.90;;;;;;4994816;28;20127;-68
2023/06/19 11:59:54;;;;;;;9.02;6.85;;;22.80;99.90;;;;;;4996287;28;20420;-68
2023/06/19 12:02:21;;;;;;;8.55;7.00;;;23.00;99.90;;;;;;5014614;28;20042;-68
2023/06/19 12:04:46;;;;;;;9.07;7.03;;;23.00;99.90;;;;;;5011785;28;20037;-69
2023/06/19 12:07:12;;;;;;;11.40;8.38;;;23.00;99.90;;;;;;5005548;28;20050;-68
2023/06/19 12:09:38;;;;;;;10.45;8.38;;;22.90;99.90;;;;;;5006677;28;20034;-68
2023/06/19 12:12:05;;;;;;;9.88;8.07;;;23.00;99.90;;;;;;5010539;28;20041;-69
2023/06/19 12:14:31;;;;;;;10.20;8.48;;;22.90;99.90;;;;;;4997260;28;20046;-68
2023/06/19 12:16:56;;;;;;;12.77;7.88;;;22.80;99.90;;;;;;5001494;28;20038;-68
2023/06/19 12:19:22;;;;;;;12.45;9.05;;;22.60;99.90;;;;;;5005665;28;20034;-68
2023/06/19 12:21:48;;;;;;;12.70;8.85;;;22.70;99.90;;;;;;5004258;28;20034;-68
2023/06/19 12:24:13;;;;;;;12.85;9.07;;;22.70;99.90;;;;;;5010435;28;20052;-68
2023/06/19 12:26:39;;;;;;;12.40;8.00;;;22.60;99.90;;;;;;5014016;28;20030;-69
2023/06/19 12:29:06;;;;;;;14.23;9.05;;;22.70;99.90;;;;;;5013848;28;20105;-68
2023/06/19 12:31:33;;;;;;;13.48;9.27;;;22.70;99.90;;;;;;5014292;28;20504;-68
2023/06/19 12:34:01;;;;;;;12.93;9.32;;;22.80;99.90;;;;;;5014078;28;20508;-68
2023/06/19 12:36:27;;;;;;;11.32;8.93;;;22.80;99.90;;;;;;5013937;28;20121;-68
2023/06/19 12:38:53;;;;;;;13.98;9.73;;;22.80;99.90;;;;;;5013960;28;20536;-68
2023/06/19 12:41:19;;;;;;;12.23;9.77;;;22.80;99.90;;;;;;5013627;28;20050;-68